Time;durP1;ratioP1;P1;durP2;ratioP2;P2;SDS_P1;SDS_P2;PMS_P1;PMS_P2;Temp;Humidity;BMP_temperature;BMP_pressure;BME280_temperature;BME280_humidity;BME280_pressure;Samples;Min_cycle;Max_cycle;Signal;HPM_P1;HPM_P2
2023/05/11 00:01:16;;;;;;;7.05;5.05;;;;;;;9.09;100.00;101117.22;5009591;28;20049;-76
2023/05/11 00:03:42;;;;;;;5.70;4.70;;;;;;;8.29;100.00;101025.00;5023678;28;20447;-76
2023/05/11 00:06:07;;;;;;;6.72;5.22;;;;;;;8.81;100.00;101086.19;5037632;28;20041;-75
2023/05/11 00:08:33;;;;;;;5.45;3.72;;;;;;;8.99;100.00;101114.41;5030224;28;20041;-77
2023/05/11 00:11:01;;;;;;;7.93;4.57;;;;;;;8.53;100.00;101011.56;5031033;28;20049;-74
2023/05/11 00:13:27;;;;;;;6.82;4.63;;;;;;;8.84;100.00;101094.97;5030587;28;20033;-76
2023/05/11 00:15:53;;;;;;;7.15;4.50;;;;;;;8.16;100.00;100988.19;5003050;28;20491;-79
2023/05/11 00:18:18;;;;;;;7.00;4.18;;;;;;;7.99;100.00;100976.53;5010004;28;20037;-82
2023/05/11 00:20:44;;;;;;;8.52;4.82;;;;;;;8.79;100.00;101107.09;5016352;28;20120;-76
2023/05/11 00:23:10;;;;;;;7.00;4.45;;;;;;;8.66;100.00;101113.84;5036665;28;20131;-75
2023/05/11 00:25:36;;;;;;;6.32;3.92;;;;;;;8.25;100.00;101030.19;5030535;28;20557;-75
2023/05/11 00:28:01;;;;;;;6.97;4.40;;;;;;;8.66;100.00;101108.63;5040137;28;20037;-74
2023/05/11 00:30:27;;;;;;;6.13;3.45;;;;;;;8.68;100.00;101103.38;5033288;28;20035;-75
2023/05/11 00:32:52;;;;;;;4.78;3.63;;;;;;;7.40;100.00;100917.88;5025108;28;20056;-77
2023/05/11 00:35:18;;;;;;;5.35;3.22;;;;;;;8.11;100.00;101025.56;5039748;28;20048;-75
2023/05/11 00:37:43;;;;;;;5.22;3.90;;;;;;;7.79;100.00;101106.75;5034531;28;20041;-77
2023/05/11 00:40:09;;;;;;;7.60;4.72;;;;;;;7.67;100.00;101096.91;5029899;28;20025;-77
2023/05/11 00:42:35;;;;;;;8.60;3.67;;;;;;;7.81;100.00;101071.97;5020978;28;20112;-74
2023/05/11 00:45:01;;;;;;;8.07;5.30;;;;;;;7.23;100.00;100949.69;5023699;28;20052;-74
2023/05/11 00:47:27;;;;;;;12.48;5.47;;;;;;;7.69;100.00;101090.00;5022991;28;20048;-76
2023/05/11 00:49:52;;;;;;;6.85;5.05;;;;;;;6.99;100.00;100971.78;5028378;28;20053;-75
2023/05/11 00:52:20;;;;;;;6.32;4.80;;;;;;;7.42;100.00;101052.78;5032515;28;20052;-74
2023/05/11 00:54:46;;;;;;;8.10;5.18;;;;;;;7.35;100.00;101043.94;5039133;28;20124;-74
2023/05/11 00:57:13;;;;;;;10.35;5.38;;;;;;;7.35;100.00;101016.13;5026472;28;20038;-73
2023/05/11 00:59:39;;;;;;;13.90;4.50;;;;;;;7.87;100.00;101052.94;5039314;28;20042;-75
2023/05/11 01:02:05;;;;;;;5.63;4.07;;;;;;;7.97;100.00;101060.13;5036547;28;20049;-76
2023/05/11 01:04:31;;;;;;;7.35;4.63;;;;;;;7.80;100.00;101038.88;5027548;28;20406;-74
2023/05/11 01:07:11;;;;;;;7.72;4.80;;;;;;;7.07;100.00;100969.34;5009226;28;20049;-75
2023/05/11 01:09:42;;;;;;;1.00;0.93;;;;;;;7.61;100.00;101061.09;5008618;28;20038;-74
2023/05/11 01:12:39;;;;;;;5.20;3.88;;;;;;;7.64;100.00;101054.19;5008251;28;20054;-77
2023/05/11 01:15:13;;;;;;;7.13;4.82;;;;;;;7.15;100.00;101060.00;5023808;28;20084;-76
2023/05/11 01:17:59;;;;;;;7.38;5.60;;;;;;;7.36;100.00;101069.22;5029988;28;20207;-75
2023/05/11 01:20:27;;;;;;;6.20;4.57;;;;;;;7.09;100.00;101057.25;5017110;28;20508;-75
2023/05/11 01:23:06;;;;;;;8.70;5.38;;;;;;;7.19;100.00;101053.16;5039615;28;20067;-76
2023/05/11 01:25:50;;;;;;;6.53;4.32;;;;;;;7.01;100.00;101055.31;5026915;28;20056;-75
2023/05/11 01:28:18;;;;;;;;;;;;;;;6.95;100.00;101049.09;5038909;28;20026;-72
2023/05/11 01:31:11;;;;;;;1.02;0.77;;;;;;;7.36;100.00;101040.50;5039293;28;19917;-76
2023/05/11 01:33:43;;;;;;;6.50;4.15;;;;;;;7.24;100.00;101001.94;5023579;28;20045;-75
2023/05/11 01:36:11;;;;;;;1.70;1.58;;;;;;;6.98;100.00;101045.69;5006936;28;20049;-75
2023/05/11 01:38:45;;;;;;;2.17;1.23;;;;;;;6.71;100.00;101049.34;5023349;28;20053;-74
2023/05/11 01:41:21;;;;;;;1.42;1.15;;;;;;;5.61;100.00;100926.47;5007098;28;20053;-76
2023/05/11 01:43:52;;;;;;;6.70;5.05;;;;;;;5.80;100.00;100909.63;5010858;28;20557;-74
2023/05/11 01:46:22;;;;;;;0.73;0.52;;;;;;;6.42;100.00;101017.28;4985024;28;20039;-73
2023/05/11 01:48:51;;;;;;;1.20;0.85;;;;;;;6.20;100.00;101010.59;5022963;28;20500;-73
2023/05/11 01:51:18;;;;;;;0.73;0.50;;;;;;;6.09;100.00;100986.88;5019633;28;20049;-76
2023/05/11 01:53:46;;;;;;;9.73;5.18;;;;;;;5.35;100.00;100869.34;5016846;28;20505;-76
2023/05/11 01:56:14;;;;;;;1.38;1.15;;;;;;;5.70;100.00;100957.97;5015542;28;20040;-74
2023/05/11 01:58:41;;;;;;;8.38;5.20;;;;;;;5.31;100.00;100895.22;5011762;28;20076;-75
2023/05/11 02:01:08;;;;;;;1.00;0.82;;;;;;;6.06;100.00;100979.00;5011276;28;20033;-82
2023/05/11 02:03:35;;;;;;;1.80;1.30;;;;;;;5.90;100.00;101015.84;5006168;28;20030;-77
2023/05/11 02:06:03;;;;;;;1.88;1.20;;;;;;;5.08;100.00;100877.25;5020796;28;20046;-77
2023/05/11 02:08:30;;;;;;;1.13;0.75;;;;;;;5.72;100.00;100990.13;5022052;28;20049;-75
2023/05/11 02:10:58;;;;;;;3.25;1.90;;;;;;;5.84;100.00;100995.69;5026656;28;20049;-77
2023/05/11 02:13:26;;;;;;;1.65;1.13;;;;;;;5.45;100.00;100946.81;5025935;28;20041;-73
2023/05/11 02:15:55;;;;;;;2.70;2.40;;;;;;;5.90;100.00;100989.78;5026096;28;20060;-74
2023/05/11 02:18:20;;;;;;;3.58;1.52;;;;;;;4.97;100.00;100863.03;5008958;28;20056;-73
2023/05/11 02:20:47;;;;;;;2.05;1.15;;;;;;;5.57;100.00;100961.94;5019966;28;20116;-74
2023/05/11 02:23:13;;;;;;;9.70;5.38;;;;;;;5.32;100.00;100882.28;5003233;28;20043;-75
2023/05/11 02:25:40;;;;;;;0.98;0.93;;;;;;;4.99;100.00;100871.75;5007188;28;20046;-76
2023/05/11 02:28:07;;;;;;;4.63;1.77;;;;;;;5.40;100.00;100984.84;5017200;28;20061;-75
2023/05/11 02:30:40;;;;;;;6.32;4.82;;;;;;;4.70;100.00;100837.94;5011687;28;20034;-74
2023/05/11 02:33:08;;;;;;;1.15;1.08;;;;;;;4.77;100.00;100826.88;5011635;28;20144;-75
2023/05/11 02:35:41;;;;;;;2.13;1.75;;;;;;;5.46;100.00;100987.66;5024625;28;20457;-74
2023/05/11 02:38:08;;;;;;;1.20;0.90;;;;;;;5.60;100.00;100989.78;5038007;28;20037;-74
2023/05/11 02:40:41;;;;;;;1.70;1.40;;;;;;;5.46;100.00;100986.78;5029776;28;20056;-74
2023/05/11 02:43:10;;;;;;;1.38;0.93;;;;;;;4.76;100.00;100879.75;5041395;28;20033;-76
2023/05/11 02:45:37;;;;;;;1.55;1.20;;;;;;;5.45;100.00;100969.38;5003828;28;20022;-75
2023/05/11 02:48:21;;;;;;;0.57;0.55;;;;;;;4.58;100.00;100814.19;5014620;28;20044;-74
2023/05/11 02:50:50;;;;;;;0.88;0.73;;;;;;;5.39;100.00;100928.44;5035954;28;20078;-75
2023/05/11 02:53:17;;;;;;;2.15;2.05;;;;;;;4.68;100.00;100836.13;5055162;28;20049;-76
2023/05/11 02:55:43;;;;;;;0.82;0.60;;;;;;;5.34;100.00;100948.25;5032585;28;20128;-75
2023/05/11 02:58:09;;;;;;;1.20;1.10;;;;;;;5.52;100.00;100952.22;5027471;28;20124;-75
2023/05/11 03:00:34;;;;;;;5.57;0.85;;;;;;;5.42;100.00;100949.34;5012577;28;20040;-75
2023/05/11 03:03:00;;;;;;;0.85;0.52;;;;;;;5.25;100.00;100903.75;5007388;28;20820;-76
2023/05/11 03:05:25;;;;;;;2.60;2.40;;;;;;;5.64;100.00;100969.09;5030746;28;20049;-75
2023/05/11 03:07:55;;;;;;;2.50;1.38;;;;;;;5.87;100.00;100948.00;5029270;28;20571;-74
2023/05/11 03:10:21;;;;;;;1.25;1.15;;;;;;;5.17;100.00;100816.78;5039405;28;20049;-76
2023/05/11 03:12:47;;;;;;;6.32;2.90;;;;;;;5.53;100.00;100873.31;5022027;28;20072;-75
2023/05/11 03:15:14;;;;;;;0.68;0.65;;;;;;;5.60;100.00;100883.94;5007692;28;20773;-77
2023/05/11 03:17:41;;;;;;;1.55;0.70;;;;;;;5.05;100.00;100864.13;5007227;28;20065;-74
2023/05/11 03:20:08;;;;;;;0.90;0.82;;;;;;;5.17;100.00;100850.59;5014935;28;20202;-75
2023/05/11 03:22:36;;;;;;;1.65;1.23;;;;;;;5.78;100.00;100958.16;5011748;28;20040;-74
2023/05/11 03:25:02;;;;;;;5.15;1.38;;;;;;;4.69;100.00;100757.34;5011047;28;20121;-76
2023/05/11 03:27:29;;;;;;;3.70;1.00;;;;;;;5.40;100.00;100879.88;5016544;28;20048;-75
2023/05/11 03:29:56;;;;;;;1.88;1.17;;;;;;;5.94;100.00;100986.44;5012719;28;20409;-74
2023/05/11 03:32:21;;;;;;;0.75;0.75;;;;;;;5.89;100.00;100965.44;5009278;28;20386;-75
2023/05/11 03:34:48;;;;;;;1.98;1.65;;;;;;;5.91;100.00;100992.41;5019456;28;20056;-79
2023/05/11 03:37:16;;;;;;;17.30;1.17;;;;;;;5.82;100.00;101004.31;5001834;28;20156;-77
2023/05/11 03:39:46;;;;;;;0.98;0.90;;;;;;;5.17;100.00;100892.22;5022323;28;20064;-75
2023/05/11 03:42:14;;;;;;;2.30;1.27;;;;;;;5.79;100.00;100999.88;5018066;28;20074;-75
2023/05/11 03:44:42;;;;;;;2.05;1.05;;;;;;;5.20;100.00;100887.13;5010387;28;20034;-75
2023/05/11 03:47:09;;;;;;;0.73;0.60;;;;;;;5.62;100.00;100978.56;5017486;28;20062;-77
2023/05/11 03:49:38;;;;;;;2.97;1.80;;;;;;;5.95;100.00;100993.44;5019948;28;20159;-74
2023/05/11 03:52:06;;;;;;;2.85;0.70;;;;;;;6.13;100.00;101000.84;5049966;28;20045;-76
2023/05/11 03:54:31;;;;;;;0.90;0.65;;;;;;;5.64;100.00;100909.22;5032166;28;20033;-75
2023/05/11 03:56:57;;;;;;;14.38;2.90;;;;;;;5.63;100.00;100894.41;5038671;28;20122;-74
2023/05/11 03:59:23;;;;;;;1.98;1.40;;;;;;;5.87;100.00;100920.25;5042773;28;20064;-75
2023/05/11 04:01:51;;;;;;;2.08;1.75;;;;;;;5.77;100.00;100888.72;5027465;28;20041;-80
2023/05/11 04:04:18;;;;;;;2.55;1.88;;;;;;;6.35;100.00;101020.59;5032344;28;20116;-76
2023/05/11 04:06:43;;;;;;;1.17;1.00;;;;;;;5.74;100.00;100876.50;5035942;28;20041;-72
2023/05/11 04:09:10;;;;;;;3.47;2.17;;;;;;;6.24;100.00;101014.19;5026297;28;20056;-77
2023/05/11 04:11:38;;;;;;;2.70;2.50;;;;;;;6.38;100.00;100983.28;5015267;28;20137;-76
2023/05/11 04:14:04;;;;;;;0.52;0.50;;;;;;;6.45;100.00;100995.63;5005274;28;20049;-76
2023/05/11 04:16:29;;;;;;;1.38;0.82;;;;;;;6.24;100.00;100967.28;4997549;28;20053;-74
2023/05/11 04:18:55;;;;;;;1.05;0.95;;;;;;;6.96;100.00;101029.09;5009220;28;20189;-75
2023/05/11 04:21:21;;;;;;;1.10;0.95;;;;;;;6.29;100.00;100914.44;5030508;28;20043;-76
2023/05/11 04:23:47;;;;;;;1.27;1.13;;;;;;;7.24;100.00;101048.91;5041259;28;20087;-75
2023/05/11 04:26:12;;;;;;;1.00;0.68;;;;;;;7.06;100.00;101017.16;5031279;28;20049;-75
2023/05/11 04:28:38;;;;;;;1.38;1.27;;;;;;;7.39;100.00;101049.25;5013750;28;20115;-75
2023/05/11 04:31:03;;;;;;;1.38;1.17;;;;;;;7.16;100.00;101059.19;5028484;28;20091;-76
2023/05/11 04:33:29;;;;;;;7.70;5.20;;;;;;;7.47;100.00;101065.13;5038346;28;20559;-75
2023/05/11 04:35:54;;;;;;;2.17;1.98;;;;;;;7.39;100.00;101066.66;5021018;28;20256;-77
2023/05/11 04:38:21;;;;;;;7.25;5.15;;;;;;;7.03;100.00;100989.28;5016277;28;20480;-75
2023/05/11 04:40:47;;;;;;;10.80;5.93;;;;;;;7.59;100.00;101067.13;5019273;28;20052;-75
2023/05/11 04:43:14;;;;;;;1.65;1.35;;;;;;;7.50;100.00;101100.88;5037081;28;20075;-76
2023/05/11 04:45:39;;;;;;;9.45;5.65;;;;;;;7.70;100.00;101107.44;5026145;28;20034;-77
2023/05/11 04:48:05;;;;;;;5.10;1.27;;;;;;;7.16;100.00;100986.09;5031318;28;20055;-78
2023/05/11 04:50:31;;;;;;;1.45;1.10;;;;;;;7.72;100.00;101092.66;5039239;28;20090;-81
2023/05/11 04:52:57;;;;;;;7.40;4.82;;;;;;;7.99;100.00;101115.03;5022899;28;20498;-74
2023/05/11 04:55:22;;;;;;;9.70;5.40;;;;;;;7.04;100.00;101014.50;5020461;28;20033;-75
2023/05/11 04:57:48;;;;;;;8.50;6.40;;;;;;;7.31;100.00;101000.34;5019780;28;20179;-75
2023/05/11 05:00:13;;;;;;;7.43;4.97;;;;;;;7.79;100.00;101143.31;5020428;28;20049;-76
2023/05/11 05:02:39;;;;;;;2.05;0.73;;;;;;;7.52;100.00;101028.69;5010354;28;20490;-75
2023/05/11 05:05:05;;;;;;;11.07;5.50;;;;;;;8.42;100.00;101147.34;5008986;28;20038;-75
2023/05/11 05:07:30;;;;;;;6.30;4.82;;;;;;;8.35;100.00;101172.44;5010877;28;20096;-77
2023/05/11 05:09:56;;;;;;;6.65;5.00;;;;;;;8.08;100.00;101062.06;5008338;28;20037;-74
2023/05/11 05:12:21;;;;;;;7.88;4.97;;;;;;;9.08;100.00;101068.34;5008432;28;20053;-74
2023/05/11 05:14:47;;;;;;;7.78;4.78;;;;;;;9.28;100.00;101099.22;4998302;28;20042;-77
2023/05/11 05:17:12;;;;;;;7.97;4.97;;;;;;;10.03;100.00;101223.56;4999636;28;20492;-75
2023/05/11 05:19:37;;;;;;;9.88;5.97;;;;;;;9.44;100.00;101116.94;5019393;28;20413;-75
2023/05/11 05:22:04;;;;;;;6.45;4.30;;;;;;;10.57;100.00;101211.22;5010218;28;20441;-75
2023/05/11 05:24:29;;;;;;;6.40;4.13;;;;;;;10.39;100.00;101129.66;5007424;28;20117;-78
2023/05/11 05:26:55;;;;;;;5.85;3.67;;;;;;;11.58;100.00;101122.06;5019254;28;20120;-74
2023/05/11 05:29:20;;;;;;;8.55;4.80;;;;;;;12.03;100.00;101146.94;5014295;28;20038;-74
2023/05/11 05:31:46;;;;;;;5.72;4.00;;;;;;;13.30;100.00;101271.28;5007712;28;20042;-77
2023/05/11 05:34:11;;;;;;;6.32;4.03;;;;;;;12.65;100.00;101185.84;5017794;28;20359;-75
2023/05/11 05:36:38;;;;;;;4.55;3.35;;;;;;;13.53;100.00;101196.59;5015754;28;20107;-73
2023/05/11 05:39:07;;;;;;;4.80;2.90;;;;;;;13.07;100.00;101300.16;5009733;28;20674;-75
2023/05/11 05:41:33;;;;;;;4.43;2.67;;;;;;;14.01;100.00;101326.78;5010047;28;20071;-74
2023/05/11 05:43:58;;;;;;;5.50;3.80;;;;;;;13.76;100.00;101323.22;5012497;28;20077;-74
2023/05/11 05:46:23;;;;;;;4.03;2.13;;;;;;;11.88;100.00;101207.34;5011721;28;20045;-76
2023/05/11 05:48:49;;;;;;;3.92;1.98;;;;;;;14.00;100.00;101216.81;5013768;28;20060;-78
2023/05/11 05:51:15;;;;;;;3.55;2.15;;;;;;;14.21;100.00;101229.13;5007450;28;20072;-75
2023/05/11 05:53:41;;;;;;;4.30;2.60;;;;;;;13.10;100.00;101214.97;5017546;28;20104;-73
2023/05/11 05:56:06;;;;;;;3.70;1.67;;;;;;;14.63;100.00;101308.25;5016222;28;20042;-73
2023/05/11 05:58:32;;;;;;;3.97;2.17;;;;;;;12.49;100.00;101235.78;5008258;28;20049;-76
2023/05/11 06:00:57;;;;;;;4.32;2.05;;;;;;;12.10;100.00;101209.22;5007063;28;20482;-75
2023/05/11 06:03:22;;;;;;;3.88;2.47;;;;;;;13.81;100.00;101244.09;5004554;28;20034;-75
2023/05/11 06:05:48;;;;;;;4.97;1.55;;;;;;;14.88;100.00;101327.56;5017011;28;20136;-75
2023/05/11 06:08:13;;;;;;;3.53;1.92;;;;;;;12.54;100.00;101195.44;5007343;28;20045;-75
2023/05/11 06:10:39;;;;;;;4.47;2.88;;;;;;;13.35;100.00;101295.00;5008005;28;20069;-74
2023/05/11 06:13:07;;;;;;;4.05;2.25;;;;;;;13.97;100.00;101258.16;5039099;28;20033;-76
2023/05/11 06:15:33;;;;;;;2.80;1.88;;;;;;;14.87;100.00;101234.22;5005556;28;20117;-75
2023/05/11 06:17:58;;;;;;;4.55;2.75;;;;;;;14.83;100.00;101318.78;5009586;28;20609;-77
2023/05/11 06:20:24;;;;;;;3.67;2.78;;;;;;;15.71;100.00;101321.91;5021752;28;20045;-76
2023/05/11 06:22:49;;;;;;;2.38;1.42;;;;;;;14.25;100.00;101323.25;5035454;28;20046;-76
2023/05/11 06:25:15;;;;;;;2.55;1.73;;;;;;;13.78;100.00;101223.00;5031804;28;20059;-73
2023/05/11 06:27:40;;;;;;;3.42;1.90;;;;;;;14.69;100.00;101245.72;5007873;28;20084;-73
2023/05/11 06:30:06;;;;;;;3.33;2.05;;;;;;;15.04;100.00;101225.31;5006037;28;20049;-72
2023/05/11 06:32:33;;;;;;;4.22;2.03;;;;;;;15.18;100.00;101338.03;5006918;28;20045;-72
2023/05/11 06:34:58;;;;;;;2.33;1.38;;;;;;;14.85;100.00;101341.69;5026762;28;20116;-73
2023/05/11 06:37:24;;;;;;;4.30;2.65;;;;;;;14.85;100.00;101343.44;5039948;28;20120;-75
2023/05/11 06:39:50;;;;;;;2.70;1.60;;;;;;;13.99;100.00;101322.38;5028664;28;20025;-74
2023/05/11 06:42:15;;;;;;;3.42;1.92;;;;;;;12.70;100.00;101203.44;5032517;28;20157;-75
2023/05/11 06:44:40;;;;;;;3.13;1.38;;;;;;;14.19;100.00;101270.47;5025186;28;20060;-74
2023/05/11 06:47:07;;;;;;;4.32;2.22;;;;;;;14.61;100.00;101284.50;5018689;28;20050;-73
2023/05/11 06:49:33;;;;;;;2.67;1.40;;;;;;;14.34;100.00;101310.03;5018697;28;20900;-74
2023/05/11 06:51:58;;;;;;;3.22;1.77;;;;;;;13.62;100.00;101235.28;5019125;28;20118;-73
2023/05/11 06:54:24;;;;;;;3.47;1.35;;;;;;;14.20;100.00;101229.97;5019343;28;20457;-72
2023/05/11 06:56:50;;;;;;;4.68;2.30;;;;;;;14.90;100.00;101318.75;5004158;28;20490;-75
2023/05/11 06:59:15;;;;;;;3.50;2.60;;;;;;;15.22;100.00;101336.28;5005654;28;20760;-73
2023/05/11 07:01:41;;;;;;;3.08;1.60;;;;;;;13.76;100.00;101220.34;5001527;28;20069;-74
2023/05/11 07:04:06;;;;;;;7.43;2.13;;;;;;;13.01;100.00;101265.00;5008085;28;20111;-73
2023/05/11 07:06:32;;;;;;;5.57;2.13;;;;;;;12.85;100.00;101237.69;5015162;28;20045;-74
2023/05/11 07:08:58;;;;;;;4.03;2.42;;;;;;;13.65;100.00;101317.03;5006873;28;20054;-73
2023/05/11 07:11:24;;;;;;;4.90;2.20;;;;;;;14.01;100.00;101305.66;5019252;28;20413;-74
2023/05/11 07:13:50;;;;;;;3.45;1.80;;;;;;;14.05;100.00;101335.59;5031023;28;20053;-74
2023/05/11 07:16:16;;;;;;;3.92;2.28;;;;;;;13.11;100.00;101256.25;5031015;28;20040;-73
2023/05/11 07:18:41;;;;;;;3.65;1.55;;;;;;;13.42;100.00;101344.25;5026594;28;20041;-73
2023/05/11 07:21:07;;;;;;;2.90;1.60;;;;;;;13.60;100.00;101339.88;5028587;28;20049;-75
2023/05/11 07:23:33;;;;;;;3.38;1.95;;;;;;;12.85;100.00;101224.53;5041460;28;20040;-72
2023/05/11 07:25:58;;;;;;;3.28;1.70;;;;;;;12.77;100.00;101227.16;5031959;28;20088;-73
2023/05/11 07:28:23;;;;;;;4.93;2.47;;;;;;;13.08;100.00;101309.81;5029196;28;20096;-75
2023/05/11 07:30:49;;;;;;;3.40;1.90;;;;;;;12.61;100.00;101226.19;5040758;28;20025;-75
2023/05/11 07:33:15;;;;;;;3.30;1.55;;;;;;;12.81;100.00;101322.88;5030221;28;20054;-72
2023/05/11 07:35:40;;;;;;;2.75;1.52;;;;;;;13.23;100.00;101334.47;5043501;28;20056;-72
2023/05/11 07:38:06;;;;;;;3.78;1.40;;;;;;;13.58;100.00;101339.91;5037926;28;20111;-74
2023/05/11 07:40:34;;;;;;;4.32;2.25;;;;;;;13.21;100.00;101221.16;5043715;28;20140;-73
2023/05/11 07:43:00;;;;;;;4.30;1.52;;;;;;;13.38;100.00;101237.00;5033920;28;20030;-73
2023/05/11 07:45:26;;;;;;;2.60;1.65;;;;;;;13.90;100.00;101328.50;5026225;28;20022;-73
2023/05/11 07:47:52;;;;;;;2.42;1.75;;;;;;;13.67;100.00;101339.94;5039190;28;20413;-74
2023/05/11 07:50:17;;;;;;;1.88;1.02;;;;;;;13.59;100.00;101243.19;5039875;28;20552;-76
2023/05/11 07:52:43;;;;;;;2.40;1.40;;;;;;;13.61;100.00;101271.34;5029769;28;20132;-73
2023/05/11 07:55:08;;;;;;;3.63;1.65;;;;;;;14.19;100.00;101333.81;5037355;28;20029;-79
2023/05/11 07:57:34;;;;;;;3.70;2.17;;;;;;;13.59;100.00;101206.28;5022963;28;20030;-72
2023/05/11 08:00:00;;;;;;;9.63;2.75;;;;;;;14.57;100.00;101325.88;5028451;28;20520;-75
2023/05/11 08:02:25;;;;;;;4.10;2.03;;;;;;;14.38;100.00;101304.78;5035292;28;20822;-75
2023/05/11 08:04:51;;;;;;;4.00;1.52;;;;;;;14.04;100.00;101220.31;5025350;28;20049;-75
2023/05/11 08:07:17;;;;;;;3.33;1.80;;;;;;;13.86;100.00;101325.00;5020547;28;20033;-76
2023/05/11 08:09:42;;;;;;;3.95;2.33;;;;;;;13.87;100.00;101262.56;5028312;28;20034;-75
2023/05/11 08:12:08;;;;;;;11.32;3.22;;;;;;;14.71;100.00;101343.47;4994386;28;20054;-74
2023/05/11 08:14:33;;;;;;;6.15;3.13;;;;;;;13.45;100.00;101201.88;4992919;28;20091;-73
2023/05/11 08:16:59;;;;;;;3.90;2.60;;;;;;;14.59;100.00;101227.28;5011966;28;20377;-75
2023/05/11 08:19:24;;;;;;;3.80;2.10;;;;;;;14.88;100.00;101320.53;5028103;28;20053;-75
2023/05/11 08:21:50;;;;;;;4.03;1.73;;;;;;;15.29;100.00;101338.00;5028627;28;20057;-73
2023/05/11 08:24:15;;;;;;;38.28;7.00;;;;;;;14.62;99.52;101246.63;5034735;28;20045;-72
2023/05/11 08:26:42;;;;;;;5.72;2.42;;;;;;;14.84;99.60;101234.22;5027094;28;20045;-73
2023/05/11 08:29:07;;;;;;;4.00;2.22;;;;;;;13.93;100.00;101249.38;5017458;28;20050;-71
2023/05/11 08:31:33;;;;;;;2.45;1.52;;;;;;;15.50;100.00;101342.31;5006640;28;20417;-70
2023/05/11 08:33:58;;;;;;;2.88;1.60;;;;;;;14.66;100.00;101210.53;5007508;28;20052;-70
2023/05/11 08:36:23;;;;;;;3.65;1.42;;;;;;;15.33;99.14;101231.28;5027154;28;20037;-70
2023/05/11 08:38:49;;;;;;;2.75;1.58;;;;;;;16.29;89.78;101332.06;5021337;28;20046;-70
2023/05/11 08:41:15;;;;;;;2.78;1.58;;;;;;;16.08;85.34;101252.81;5024098;28;20037;-69
2023/05/11 08:43:42;;;;;;;2.85;1.70;;;;;;;16.79;83.73;101325.44;5035923;28;20064;-72
2023/05/11 08:46:10;;;;;;;2.22;1.35;;;;;;;16.02;79.08;101244.03;5026050;28;20040;-69
2023/05/11 08:48:36;;;;;;;1.75;1.25;;;;;;;17.09;75.14;101326.84;5027311;28;20175;-69
2023/05/11 08:51:05;;;;;;;4.55;1.38;;;;;;;17.12;70.07;101314.44;5025974;28;20038;-70
2023/05/11 08:53:31;;;;;;;1.95;0.98;;;;;;;15.91;74.96;101234.44;5015664;28;20049;-70
2023/05/11 08:55:58;;;;;;;3.15;1.85;;;;;;;17.40;75.79;101320.28;5006566;28;20049;-70
2023/05/11 08:58:25;;;;;;;1.98;1.10;;;;;;;16.31;74.52;101181.09;5010059;28;20560;-70
2023/05/11 09:00:50;;;;;;;2.63;1.38;;;;;;;16.31;67.17;101237.56;5026562;28;20021;-70
2023/05/11 09:03:17;;;;;;;3.10;2.20;;;;;;;17.18;70.25;101315.22;5025008;28;20386;-72
2023/05/11 09:05:45;;;;;;;4.78;1.58;;;;;;;17.76;64.88;101288.78;5036721;28;20496;-72
2023/05/11 09:08:12;;;;;;;2.90;1.50;;;;;;;16.39;63.04;101312.56;5025248;28;20044;-71
2023/05/11 09:10:38;;;;;;;2.70;1.42;;;;;;;15.76;65.46;101212.50;5026334;28;20055;-73
2023/05/11 09:13:04;;;;;;;2.50;1.70;;;;;;;18.00;69.94;101328.22;5032350;28;20033;-74
2023/05/11 09:15:29;;;;;;;2.05;1.23;;;;;;;16.58;66.59;101198.44;5051240;28;20082;-72
2023/05/11 09:17:55;;;;;;;3.45;1.42;;;;;;;17.68;58.68;101165.03;5025530;28;20045;-70
2023/05/11 09:20:33;;;;;;;4.72;1.70;;;;;;;18.83;58.31;101310.88;5031337;28;20068;-72
2023/05/11 09:22:59;;;;;;;1.42;0.80;;;;;;;16.86;58.39;101212.25;5023728;28;20079;-73
2023/05/11 09:25:27;;;;;;;5.78;1.70;;;;;;;16.62;58.18;101303.47;5019837;28;20045;-71
2023/05/11 09:27:53;;;;;;;3.85;1.33;;;;;;;18.33;59.02;101286.06;5012072;28;20038;-72
2023/05/11 09:30:20;;;;;;;1.83;1.10;;;;;;;15.95;63.40;101213.22;5007531;28;20055;-72
2023/05/11 09:32:56;;;;;;;2.72;1.55;;;;;;;18.55;63.35;101311.34;5009938;28;20133;-71
2023/05/11 09:35:25;;;;;;;1.92;1.05;;;;;;;17.85;56.59;101249.72;5010852;28;20061;-72
2023/05/11 09:38:10;;;;;;;5.28;2.60;;;;;;;18.49;63.06;101289.31;5007854;28;20042;-72
2023/05/11 09:40:43;;;;;;;5.50;2.50;;;;;;;18.52;60.66;101165.22;5022109;28;20041;-72
2023/05/11 09:43:17;;;;;;;2.60;1.50;;;;;;;19.46;62.34;101279.38;5017349;28;20040;-72
2023/05/11 09:45:48;;;;;;;8.13;1.88;;;;;;;19.41;57.43;101165.03;5005225;28;20045;-72
2023/05/11 09:48:20;;;;;;;2.97;2.38;;;;;;;19.45;57.74;101280.28;5018192;28;20155;-72
2023/05/11 09:50:50;;;;;;;1.38;0.82;;;;;;;18.81;57.84;101161.09;5008786;28;20129;-72
2023/05/11 09:53:16;;;;;;;2.40;1.75;;;;;;;17.05;57.54;101181.06;5012493;28;20477;-71
2023/05/11 09:55:53;;;;;;;2.33;1.20;;;;;;;16.60;62.02;101189.56;5024297;28;20077;-72
2023/05/11 09:58:19;;;;;;;4.38;2.00;;;;;;;17.35;60.69;101280.53;5014515;28;20091;-71
2023/05/11 10:00:51;;;;;;;4.43;1.63;;;;;;;18.89;57.43;101270.81;5030586;28;20033;-71
2023/05/11 10:03:17;;;;;;;3.03;1.33;;;;;;;17.56;57.79;101161.69;5028612;28;20029;-71
2023/05/11 10:05:56;;;;;;;4.35;1.63;;;;;;;18.00;66.77;101171.53;5015009;28;20395;-72
2023/05/11 10:08:33;;;;;;;2.45;1.23;;;;;;;17.28;64.21;101186.03;5005484;28;20145;-70
2023/05/11 10:11:01;;;;;;;2.70;1.13;;;;;;;19.13;61.05;101253.50;5020085;28;20052;-73
2023/05/11 10:13:28;;;;;;;4.10;1.52;;;;;;;18.85;58.06;101173.44;5031830;28;20457;-73
2023/05/11 10:15:55;;;;;;;3.72;1.58;;;;;;;18.84;54.61;101139.75;5026120;28;20053;-71
2023/05/11 10:18:21;;;;;;;0.90;0.73;;;;;;;19.16;52.35;101148.78;5030270;28;20041;-71
2023/05/11 10:20:47;;;;;;;3.08;1.70;;;;;;;18.55;52.22;101255.53;5021721;28;20448;-73
2023/05/11 10:23:14;;;;;;;2.67;1.52;;;;;;;16.95;56.59;101265.16;5027810;28;20049;-71
2023/05/11 10:25:40;;;;;;;6.07;0.98;;;;;;;17.07;57.13;101145.66;5032363;28;20049;-74
2023/05/11 10:28:05;;;;;;;2.55;1.27;;;;;;;16.74;59.64;101247.72;5030558;28;20052;-74
2023/05/11 10:30:32;;;;;;;4.97;1.13;;;;;;;17.83;57.34;101147.97;5021669;28;20033;-74
2023/05/11 10:33:00;;;;;;;1.63;0.93;;;;;;;18.01;54.89;101238.84;5020583;28;20041;-73
2023/05/11 10:35:26;;;;;;;7.13;1.83;;;;;;;17.36;59.21;101228.34;5014368;28;20037;-74
2023/05/11 10:37:52;;;;;;;3.47;1.70;;;;;;;18.03;59.45;101227.28;5007142;28;20057;-74
2023/05/11 10:40:18;;;;;;;1.73;1.05;;;;;;;17.68;60.38;101257.91;5004134;28;20045;-73
2023/05/11 10:43:08;;;;;;;1.42;0.95;;;;;;;17.55;59.78;101251.03;5004384;28;20041;-75
2023/05/11 10:45:42;;;;;;;3.63;1.92;;;;;;;19.04;58.19;101244.84;5024417;28;20053;-74
2023/05/11 10:48:38;;;;;;;2.42;1.45;;;;;;;17.93;55.10;101247.81;5050296;28;20830;-73
2023/05/11 10:51:25;;;;;;;2.03;1.15;;;;;;;17.17;58.31;101230.41;5025871;28;20481;-72
2023/05/11 10:54:09;;;;;;;2.05;1.05;;;;;;;16.65;58.22;101240.75;5034794;28;20119;-74
2023/05/11 10:57:02;;;;;;;3.92;1.35;;;;;;;17.52;55.96;101238.69;5015311;28;20136;-75
2023/05/11 10:59:52;;;;;;;1.75;1.17;;;;;;;18.95;53.88;101229.94;5010841;28;20125;-73
2023/05/11 11:02:18;;;;;;;2.03;0.98;;;;;;;16.89;55.88;101159.19;5006017;28;20058;-74
2023/05/11 11:04:45;;;;;;;2.65;1.20;;;;;;;16.56;58.07;101140.16;5014723;28;20064;-76
2023/05/11 11:07:12;;;;;;;1.92;1.23;;;;;;;17.07;58.04;101124.44;5013986;28;20129;-73
2023/05/11 11:09:58;;;;;;;1.58;0.88;;;;;;;17.24;61.06;101235.59;5029012;28;20033;-72
2023/05/11 11:12:28;;;;;;;3.45;2.58;;;;;;;17.85;61.71;101217.84;5027637;28;20084;-72
2023/05/11 11:15:05;;;;;;;2.40;1.25;;;;;;;18.39;57.82;101229.28;5028717;28;20076;-72
2023/05/11 11:17:33;;;;;;;5.03;2.42;;;;;;;17.75;55.73;101114.47;5053441;28;20062;-73
2023/05/11 11:20:06;;;;;;;1.92;0.95;;;;;;;17.90;56.12;101115.09;5030002;28;20073;-73
2023/05/11 11:22:34;;;;;;;2.35;1.17;;;;;;;18.39;56.52;101214.22;5033759;28;20053;-72
2023/05/11 11:25:11;;;;;;;2.85;1.23;;;;;;;17.40;59.66;101204.41;5031853;28;20037;-72